Joaquin V. Gonzalez, Argentina
Current Conditions -  °F | °C
As of 5:00 PM on Friday 21 Nov 2014 (Local Time) from SASJ Reporting Station
Broken Clouds Broken Clouds  
Wind Chill: 72°   Ceiling: 10000
Heat Index: 72°   Visibility: 6mi
Dew Point: 57°   Wind: 17mph
Humidity: 60%   Direction: 180°S
Pressure: 29.88"   Gusts: NA
Location:  25.08°S, 64.18°W
Report Text: SASJ 212000Z 18015KT 9999 SCT025 BKN10022/14 Q1012
Loading
Personal Weather Stations






























Interactive Weather Map New forecast layout! Learn more

10-Day Weather Forecast

Advertisements
Track Severe Weather on mobile